Time;durP1;ratioP1;P1;durP2;ratioP2;P2;SDS_P1;SDS_P2;PMS_P1;PMS_P2;Temp;Humidity;BMP_temperature;BMP_pressure;BME280_temperature;BME280_humidity;BME280_pressure;Samples;Min_cycle;Max_cycle;Signal;HPM_P1;HPM_P2
2022/05/31 00:02:02;;;;;;;4.82;3.40;;;;;;;8.41;100.00;101416.88;5017953;28;20048;-65
2022/05/31 00:04:29;;;;;;;7.38;3.72;;;;;;;8.41;100.00;101426.59;5028198;28;20037;-65
2022/05/31 00:06:54;;;;;;;7.07;3.47;;;;;;;8.40;100.00;101417.81;5007843;28;20491;-65
2022/05/31 00:09:20;;;;;;;6.65;3.42;;;;;;;8.41;100.00;101422.16;5032053;28;20048;-65
2022/05/31 00:11:46;;;;;;;7.68;3.85;;;;;;;8.39;100.00;101421.34;5030583;28;20034;-65
2022/05/31 00:14:13;;;;;;;5.60;3.67;;;;;;;8.36;100.00;101419.66;5023895;28;20076;-66
2022/05/31 00:16:39;;;;;;;7.03;3.75;;;;;;;8.35;100.00;101410.00;5023912;28;20472;-65
2022/05/31 00:19:05;;;;;;;9.40;4.30;;;;;;;8.34;100.00;101417.97;5008441;28;20079;-65
2022/05/31 00:21:43;;;;;;;7.93;4.43;;;;;;;8.36;100.00;101422.31;5012808;28;20086;-65
2022/05/31 00:24:12;;;;;;;7.68;4.38;;;;;;;8.35;100.00;101407.38;5021802;28;20116;-65
2022/05/31 00:26:39;;;;;;;6.57;3.97;;;;;;;8.34;100.00;101410.06;5011365;28;20433;-65
2022/05/31 00:29:06;;;;;;;8.63;4.43;;;;;;;8.31;100.00;101413.66;5006146;28;20017;-65
2022/05/31 00:31:33;;;;;;;8.75;4.53;;;;;;;8.29;100.00;101419.88;5027402;28;20535;-65
2022/05/31 00:33:58;;;;;;;7.72;4.82;;;;;;;8.31;100.00;101420.69;5004686;28;20080;-65
2022/05/31 00:36:24;;;;;;;10.55;4.85;;;;;;;8.32;100.00;101409.22;5006191;28;20042;-65
2022/05/31 00:38:50;;;;;;;9.20;5.15;;;;;;;8.33;100.00;101421.50;5025914;28;20037;-65
2022/05/31 00:41:26;;;;;;;8.20;4.90;;;;;;;8.30;100.00;101413.66;5013399;28;20489;-65
2022/05/31 00:43:59;;;;;;;7.03;4.80;;;;;;;8.30;100.00;101416.28;5029379;28;20069;-66
2022/05/31 00:46:28;;;;;;;10.38;5.10;;;;;;;8.30;100.00;101416.28;5013621;28;20555;-64
2022/05/31 00:48:58;;;;;;;6.72;4.78;;;;;;;8.30;100.00;101403.09;5025970;28;20025;-64
2022/05/31 00:51:32;;;;;;;9.27;5.50;;;;;;;8.29;100.00;101404.88;5008187;28;20021;-64
2022/05/31 00:54:02;;;;;;;10.73;5.25;;;;;;;8.28;100.00;101407.56;5028165;28;20026;-64
2022/05/31 00:56:30;;;;;;;10.30;5.32;;;;;;;8.24;100.00;101409.41;5028910;28;20052;-65
2022/05/31 00:59:07;;;;;;;12.85;5.60;;;;;;;8.23;100.00;101404.19;5013779;28;20036;-64
2022/05/31 01:01:36;;;;;;;10.50;5.47;;;;;;;8.22;100.00;101400.66;5026018;28;20400;-64
2022/05/31 01:04:03;;;;;;;9.40;5.85;;;;;;;8.21;100.00;101401.59;5025001;28;20055;-64
2022/05/31 01:06:29;;;;;;;8.23;5.65;;;;;;;8.20;100.00;101407.78;4994933;28;20397;-64
2022/05/31 01:08:57;;;;;;;7.68;5.50;;;;;;;8.19;100.00;101401.63;5012241;28;20036;-64
2022/05/31 01:11:27;;;;;;;11.25;5.57;;;;;;;8.19;100.00;101401.63;5027869;28;20021;-64
2022/05/31 01:13:53;;;;;;;8.80;5.45;;;;;;;8.17;100.00;101410.47;5003336;28;20026;-65
2022/05/31 01:16:19;;;;;;;11.73;5.68;;;;;;;8.17;100.00;101397.28;5014830;28;20414;-64
2022/05/31 01:18:44;;;;;;;9.13;6.00;;;;;;;8.16;100.00;101404.34;5013492;28;20034;-65
2022/05/31 01:21:10;;;;;;;9.45;5.63;;;;;;;8.15;100.00;101399.13;5029264;28;20428;-65
2022/05/31 01:23:47;;;;;;;9.77;5.53;;;;;;;8.15;100.00;101393.84;5013288;28;20029;-65
2022/05/31 01:26:18;;;;;;;9.18;5.82;;;;;;;8.15;100.00;101397.34;5013867;28;20037;-65
2022/05/31 01:28:53;;;;;;;11.35;6.32;;;;;;;8.17;100.00;101399.91;5030084;28;20100;-65
2022/05/31 01:31:32;;;;;;;9.35;6.40;;;;;;;8.17;100.00;101407.84;5024813;28;20544;-65
2022/05/31 01:34:20;;;;;;;14.27;6.53;;;;;;;8.16;100.00;101404.34;5024531;28;20091;-65
2022/05/31 01:36:48;;;;;;;12.07;6.70;;;;;;;8.17;100.00;101397.28;5023093;28;20076;-65
2022/05/31 01:39:28;;;;;;;10.13;6.63;;;;;;;8.17;100.00;101405.19;5019978;28;20135;-65
2022/05/31 01:41:59;;;;;;;11.18;7.00;;;;;;;8.15;100.00;101402.59;5002016;28;20026;-65
2022/05/31 01:44:32;;;;;;;11.68;7.10;;;;;;;8.14;100.00;101392.94;5022296;28;20523;-65
2022/05/31 01:47:00;;;;;;;11.38;6.90;;;;;;;8.14;100.00;101397.38;5023212;28;20068;-65
2022/05/31 01:49:32;;;;;;;11.93;7.50;;;;;;;8.12;100.00;101394.78;5027040;28;20536;-65
2022/05/31 01:51:58;;;;;;;11.15;7.93;;;;;;;8.11;100.00;101389.56;5028666;28;20026;-65
2022/05/31 01:54:25;;;;;;;13.00;7.55;;;;;;;8.08;100.00;101386.97;5031064;28;20038;-65
2022/05/31 01:56:55;;;;;;;11.95;7.57;;;;;;;8.07;100.00;101393.16;4992058;28;20108;-66
2022/05/31 01:59:20;;;;;;;13.38;7.57;;;;;;;8.06;100.00;101401.97;5017959;28;20030;-65
2022/05/31 02:01:47;;;;;;;12.88;8.40;;;;;;;8.04;100.00;101394.97;5031257;28;20092;-65
2022/05/31 02:04:16;;;;;;;11.25;7.50;;;;;;;8.02;100.00;101390.66;5031067;28;20034;-65
2022/05/31 02:06:42;;;;;;;12.35;8.02;;;;;;;8.03;100.00;101392.34;5031417;28;20025;-65
2022/05/31 02:09:11;;;;;;;15.07;7.97;;;;;;;8.01;100.00;101375.72;5031367;28;20044;-64
2022/05/31 02:11:37;;;;;;;11.95;8.32;;;;;;;7.98;100.00;101389.84;4992863;28;20022;-64
2022/05/31 02:14:04;;;;;;;11.85;8.07;;;;;;;7.99;100.00;101391.59;5011697;28;20523;-65
2022/05/31 02:16:29;;;;;;;13.60;8.10;;;;;;;7.99;100.00;101388.97;5011463;28;20508;-65
2022/05/31 02:21:39;;;;;;;12.85;8.63;;;;;;;7.95;100.00;101391.69;5026660;28;20125;-65
2022/05/31 02:24:09;;;;;;;12.68;8.18;;;;;;;7.95;100.00;101381.16;5004679;28;20131;-65
2022/05/31 02:26:36;;;;;;;12.68;8.13;;;;;;;7.96;100.00;101385.53;5024249;28;20492;-65
2022/05/31 02:29:02;;;;;;;13.27;8.35;;;;;;;7.97;100.00;101384.63;5026983;28;20049;-65
2022/05/31 02:31:29;;;;;;;14.82;7.95;;;;;;;7.98;100.00;101381.06;5027028;28;20029;-65
2022/05/31 02:33:55;;;;;;;12.35;8.10;;;;;;;7.97;100.00;101390.75;5028842;28;20404;-66
2022/05/31 02:36:20;;;;;;;15.52;8.20;;;;;;;7.98;100.00;101381.94;5026520;28;20029;-65
2022/05/31 02:38:46;;;;;;;13.15;7.85;;;;;;;8.01;100.00;101378.38;5026146;28;20116;-64
2022/05/31 02:41:11;;;;;;;11.73;7.75;;;;;;;8.01;100.00;101375.72;5015229;28;20551;-65
2022/05/31 02:43:36;;;;;;;12.25;8.57;;;;;;;8.03;100.00;101377.41;5029860;28;20047;-65
2022/05/31 02:46:05;;;;;;;11.20;8.57;;;;;;;8.03;100.00;101381.81;5027887;28;20432;-65
2022/05/31 02:48:31;;;;;;;13.68;8.70;;;;;;;8.02;100.00;101369.56;5031927;28;20033;-64
2022/05/31 02:50:56;;;;;;;11.60;8.18;;;;;;;8.00;100.00;101376.63;5031902;28;20396;-64
2022/05/31 02:53:22;;;;;;;14.20;7.97;;;;;;;8.00;100.00;101376.63;5023058;28;20444;-64
2022/05/31 02:55:47;;;;;;;11.80;8.50;;;;;;;7.97;100.00;101382.00;5011782;28;20029;-65
2022/05/31 02:58:13;;;;;;;11.77;8.18;;;;;;;7.99;100.00;101374.88;5033031;28;20439;-66
2022/05/31 03:00:38;;;;;;;11.77;8.50;;;;;;;7.99;100.00;101372.25;5013232;28;20034;-64
2022/05/31 03:03:04;;;;;;;12.68;8.38;;;;;;;7.98;100.00;101371.41;5010426;28;20037;-65
2022/05/31 03:05:29;;;;;;;12.30;8.55;;;;;;;7.96;100.00;101370.56;5029371;28;20072;-64
2022/05/31 03:07:55;;;;;;;13.63;7.97;;;;;;;7.94;100.00;101371.50;5031079;28;20103;-65
2022/05/31 03:10:20;;;;;;;13.90;8.77;;;;;;;7.92;100.00;101373.31;5020204;28;20038;-65
2022/05/31 03:12:48;;;;;;;14.43;8.38;;;;;;;7.90;100.00;101370.69;5022905;28;20632;-65
2022/05/31 03:15:17;;;;;;;14.23;8.93;;;;;;;7.90;100.00;101373.34;5031619;28;20444;-65
2022/05/31 03:17:51;;;;;;;12.23;8.43;;;;;;;7.93;100.00;101364.50;5025966;28;20025;-65
2022/05/31 03:20:40;;;;;;;13.05;8.95;;;;;;;7.93;100.00;101364.50;5027854;28;20045;-65
2022/05/31 03:23:27;;;;;;;14.18;8.45;;;;;;;7.94;100.00;101360.94;5012734;28;20043;-65
2022/05/31 03:25:53;;;;;;;13.95;8.90;;;;;;;7.98;100.00;101362.59;5029195;28;20072;-65
2022/05/31 03:28:21;;;;;;;14.05;8.80;;;;;;;8.01;100.00;101365.19;5011168;28;20029;-65
2022/05/31 03:30:47;;;;;;;12.35;8.45;;;;;;;8.03;100.00;101361.59;5032140;28;20397;-65
2022/05/31 03:33:13;;;;;;;15.68;8.40;;;;;;;8.06;100.00;101367.66;5033154;28;20033;-65
2022/05/31 03:35:39;;;;;;;11.52;8.30;;;;;;;8.08;100.00;101365.88;5028325;28;20425;-65
2022/05/31 03:38:05;;;;;;;14.45;8.65;;;;;;;8.10;100.00;101364.06;5022043;28;20052;-65
2022/05/31 03:43:14;;;;;;;13.63;8.48;;;;;;;8.11;100.00;101353.47;5028078;28;20063;-64
2022/05/31 03:45:42;;;;;;;13.20;8.35;;;;;;;8.09;100.00;101352.63;5031329;28;21309;-65
2022/05/31 03:48:09;;;;;;;11.15;8.38;;;;;;;8.10;100.00;101362.28;5023662;28;20030;-65
2022/05/31 03:50:35;;;;;;;11.75;8.55;;;;;;;8.09;100.00;101357.91;5030861;28;20041;-65
2022/05/31 03:53:01;;;;;;;13.45;9.02;;;;;;;8.10;100.00;101364.94;5027764;28;20075;-65
2022/05/31 03:55:27;;;;;;;16.65;9.63;;;;;;;8.12;100.00;101354.34;4991869;28;20034;-65
2022/05/31 03:57:53;;;;;;;11.77;8.52;;;;;;;8.12;100.00;101365.75;5033010;28;20565;-65
2022/05/31 04:00:19;;;;;;;15.43;9.02;;;;;;;8.14;100.00;101361.28;5029179;28;20030;-66
2022/05/31 04:02:45;;;;;;;15.25;9.50;;;;;;;8.19;100.00;101358.56;5025936;28;20029;-65
2022/05/31 04:05:11;;;;;;;13.38;9.10;;;;;;;8.22;100.00;101354.97;5010049;28;20168;-66
2022/05/31 04:07:37;;;;;;;13.05;8.88;;;;;;;8.25;100.00;101353.13;5005645;28;20119;-66
2022/05/31 04:10:04;;;;;;;17.02;9.73;;;;;;;8.28;100.00;101360.94;5008495;28;20076;-65
2022/05/31 04:12:34;;;;;;;14.07;9.38;;;;;;;8.30;100.00;101353.84;5028129;28;20034;-66
2022/05/31 04:14:59;;;;;;;13.20;8.88;;;;;;;8.34;100.00;101352.00;5035617;28;20025;-66
2022/05/31 04:17:25;;;;;;;13.88;9.07;;;;;;;8.36;100.00;101353.69;5009934;28;20056;-66
2022/05/31 04:19:50;;;;;;;13.90;9.13;;;;;;;8.41;100.00;101350.91;5029794;28;20112;-65
2022/05/31 04:22:16;;;;;;;13.45;9.55;;;;;;;8.48;100.00;101349.03;5028332;28;20057;-67
2022/05/31 04:24:42;;;;;;;14.00;8.95;;;;;;;8.51;100.00;101347.13;4992697;28;20072;-66
2022/05/31 04:27:08;;;;;;;14.00;8.68;;;;;;;8.56;100.00;101346.16;5031357;28;20087;-65
2022/05/31 04:29:35;;;;;;;14.05;9.20;;;;;;;8.59;100.00;101359.25;5003222;28;20108;-66
2022/05/31 04:32:00;;;;;;;13.85;9.45;;;;;;;8.62;100.00;101348.59;5023292;28;20064;-66
2022/05/31 04:34:26;;;;;;;14.63;9.43;;;;;;;8.65;100.00;101346.75;5029640;28;20456;-66
2022/05/31 04:36:52;;;;;;;12.20;9.05;;;;;;;8.68;100.00;101351.06;5008842;28;20050;-65
2022/05/31 04:39:17;;;;;;;14.65;8.95;;;;;;;8.68;100.00;101340.50;5005372;28;20393;-66
2022/05/31 04:41:43;;;;;;;17.52;9.40;;;;;;;8.72;100.00;101347.47;5003323;28;20054;-66
2022/05/31 04:44:08;;;;;;;12.52;8.57;;;;;;;8.76;100.00;101350.84;5001231;28;20028;-66
2022/05/31 04:46:34;;;;;;;12.45;8.75;;;;;;;8.78;100.00;101341.97;5008107;28;20065;-66
2022/05/31 04:49:02;;;;;;;12.85;8.75;;;;;;;8.83;100.00;101341.84;5008030;28;20639;-65
2022/05/31 04:51:29;;;;;;;13.77;8.40;;;;;;;8.86;100.00;101339.09;5005453;28;20029;-66
2022/05/31 04:53:55;;;;;;;15.07;9.57;;;;;;;8.91;100.00;101339.84;5009938;28;20026;-65
2022/05/31 04:56:21;;;;;;;14.75;9.35;;;;;;;8.93;100.00;101347.75;4990023;28;20034;-65
2022/05/31 04:58:48;;;;;;;13.63;9.73;;;;;;;9.00;100.00;101339.59;5006970;28;20148;-65
2022/05/31 05:01:13;;;;;;;16.70;8.95;;;;;;;9.10;100.00;101340.13;5013521;28;20040;-64
2022/05/31 05:03:41;;;;;;;15.90;8.43;;;;;;;9.17;100.00;101331.13;5006762;28;20485;-66
2022/05/31 05:06:09;;;;;;;12.13;8.55;;;;;;;9.25;100.00;101343.25;5006227;28;20026;-65
2022/05/31 05:08:36;;;;;;;13.25;9.00;;;;;;;9.30;100.00;101341.31;5003760;28;20034;-65
2022/05/31 05:11:03;;;;;;;12.55;8.70;;;;;;;9.37;100.00;101334.91;5006348;28;20076;-66
2022/05/31 05:13:30;;;;;;;12.82;9.27;;;;;;;9.45;100.00;101329.38;5009703;28;20495;-65
2022/05/31 05:15:55;;;;;;;12.80;8.38;;;;;;;9.52;100.00;101334.41;5005786;28;20489;-66
2022/05/31 05:18:22;;;;;;;14.35;8.18;;;;;;;9.61;100.00;101324.47;5002252;28;20031;-65
2022/05/31 05:20:47;;;;;;;13.15;9.05;;;;;;;9.67;100.00;101332.19;4992952;28;20038;-65
2022/05/31 05:23:13;;;;;;;11.88;8.52;;;;;;;9.72;100.00;101318.81;5010755;28;20058;-65
2022/05/31 05:25:38;;;;;;;14.13;8.68;;;;;;;9.81;100.00;101327.31;5005664;28;20038;-65
2022/05/31 05:30:38;;;;;;;11.45;8.32;;;;;;;9.94;100.00;101321.59;4999929;28;20252;-65
2022/05/31 05:30:51;;;;;;;12.75;8.48;;;;;;;10.13;100.00;101321.84;5003033;28;20398;-65
2022/05/31 05:33:17;;;;;;;11.05;7.90;;;;;;;10.29;100.00;101317.72;5006638;28;20147;-67
2022/05/31 05:35:43;;;;;;;11.80;8.65;;;;;;;10.43;100.00;101324.31;5007093;28;20037;-64
2022/05/31 05:38:08;;;;;;;11.98;7.60;;;;;;;10.48;100.00;101319.72;5023245;28;20070;-64
2022/05/31 05:40:37;;;;;;;10.77;7.50;;;;;;;10.56;100.00;101328.25;5001180;28;20096;-66
2022/05/31 05:43:05;;;;;;;13.77;8.48;;;;;;;10.63;100.00;101331.53;5031141;28;20048;-66
2022/05/31 05:45:31;;;;;;;13.55;7.97;;;;;;;10.69;100.00;101322.50;5024735;28;20070;-66
2022/05/31 05:47:57;;;;;;;12.68;8.07;;;;;;;10.78;100.00;101322.13;5013411;28;20044;-66
2022/05/31 05:50:22;;;;;;;12.93;7.45;;;;;;;10.91;100.00;101319.91;5031285;28;20029;-66
2022/05/31 05:52:53;;;;;;;10.93;7.40;;;;;;;11.08;100.00;101321.88;5030980;28;20032;-66
2022/05/31 05:55:18;;;;;;;9.97;7.27;;;;;;;11.31;100.00;101310.38;5031263;28;20029;-65
2022/05/31 05:57:44;;;;;;;12.95;7.32;;;;;;;11.55;100.00;101315.59;5023009;28;20194;-65
2022/05/31 06:00:10;;;;;;;10.55;7.40;;;;;;;11.77;100.00;101316.41;5028133;28;20029;-66
2022/05/31 06:02:37;;;;;;;10.15;7.68;;;;;;;12.05;100.00;101317.06;5049994;28;20040;-65
2022/05/31 06:05:27;;;;;;;9.07;6.97;;;;;;;12.23;98.85;101310.09;5029502;28;20057;-65
2022/05/31 06:08:05;;;;;;;11.48;7.03;;;;;;;12.54;97.34;101311.38;5018636;28;20426;-64
2022/05/31 06:10:39;;;;;;;10.63;7.00;;;;;;;12.83;94.97;101319.81;5016341;28;20036;-61
2022/05/31 06:13:16;;;;;;;9.68;6.38;;;;;;;13.05;92.72;101311.66;5034179;28;20091;-64
2022/05/31 06:15:48;;;;;;;9.23;6.25;;;;;;;13.18;90.92;101307.47;5021081;28;20021;-65
2022/05/31 06:18:20;;;;;;;9.98;6.45;;;;;;;13.18;88.10;101311.94;5015980;28;20044;-63
2022/05/31 06:20:52;;;;;;;11.30;6.65;;;;;;;13.16;89.42;101321.78;5034566;28;20485;-64
2022/05/31 06:23:17;;;;;;;;;;;;;;;13.20;89.66;101318.91;5034006;28;20091;-65
2022/05/31 06:25:42;;;;;;;10.93;6.50;;;;;;;13.25;87.21;101318.69;5034055;28;20391;-65
2022/05/31 06:28:08;;;;;;;12.07;6.93;;;;;;;13.26;85.81;101323.06;5032808;28;20082;-65
2022/05/31 06:30:33;;;;;;;11.60;7.28;;;;;;;13.24;86.83;101322.28;5033449;28;20401;-65
2022/05/31 06:32:58;;;;;;;11.35;7.07;;;;;;;13.26;86.49;101317.72;5033400;28;20033;-65
2022/05/31 06:35:24;;;;;;;10.05;6.63;;;;;;;13.26;87.39;101323.06;5039573;28;20033;-65
2022/05/31 06:37:50;;;;;;;15.20;7.70;;;;;;;13.19;88.44;101324.31;5032692;28;20160;-65
2022/05/31 06:40:16;;;;;;;12.10;7.40;;;;;;;13.08;89.47;101316.81;5048930;28;20035;-66
2022/05/31 06:42:41;;;;;;;10.57;7.22;;;;;;;13.05;91.77;101314.31;5029619;28;20037;-64
2022/05/31 06:45:07;;;;;;;10.82;7.30;;;;;;;13.04;90.26;101317.91;5016373;28;20029;-65
2022/05/31 06:47:32;;;;;;;9.52;6.43;;;;;;;13.14;89.16;101316.53;5008412;28;20116;-65
2022/05/31 06:49:58;;;;;;;12.45;7.07;;;;;;;13.36;87.92;101323.47;5030989;28;20095;-65
2022/05/31 06:57:52;;;;;;;12.57;6.80;;;;;;;14.14;82.40;101312.50;5015395;28;20037;-64
2022/05/31 07:00:19;;;;;;;14.27;6.93;;;;;;;14.23;81.55;101312.91;5033648;28;20075;-64
2022/05/31 07:02:45;;;;;;;8.70;6.72;;;;;;;14.22;82.21;101312.97;5035179;28;20025;-65
2022/05/31 07:05:12;;;;;;;12.25;7.03;;;;;;;14.23;83.92;101312.03;5033789;28;20033;-64
2022/05/31 07:07:39;;;;;;;9.65;6.70;;;;;;;14.21;81.67;101313.94;5033746;28;20145;-65
2022/05/31 07:10:06;;;;;;;8.98;6.65;;;;;;;14.20;82.22;101313.03;5015029;28;20028;-65
2022/05/31 07:12:32;;;;;;;12.90;7.32;;;;;;;14.23;82.26;101309.34;5030772;28;20025;-64
2022/05/31 07:14:58;;;;;;;10.85;6.93;;;;;;;14.21;82.14;101317.44;5052219;28;20025;-64
2022/05/31 07:17:23;;;;;;;11.48;6.50;;;;;;;14.14;82.34;101321.34;5039936;28;20033;-64
2022/05/31 07:19:48;;;;;;;9.98;6.75;;;;;;;14.09;82.21;101312.75;5027701;28;20061;-65
2022/05/31 07:22:15;;;;;;;10.75;6.65;;;;;;;13.99;81.60;101317.72;5032715;28;20504;-65
2022/05/31 07:24:40;;;;;;;11.70;7.00;;;;;;;14.00;85.63;101313.22;5015754;28;20488;-65
2022/05/31 07:27:06;;;;;;;11.65;7.50;;;;;;;13.98;81.98;101313.31;5030995;28;20156;-65
2022/05/31 07:29:31;;;;;;;11.07;6.25;;;;;;;14.09;82.72;101315.41;5047338;28;20100;-66
2022/05/31 07:31:57;;;;;;;10.95;6.90;;;;;;;14.14;81.97;101316.03;5033267;28;20045;-65
2022/05/31 07:34:25;;;;;;;10.52;6.30;;;;;;;14.21;81.63;101317.44;5015615;28;20014;-65
2022/05/31 07:36:51;;;;;;;10.40;6.47;;;;;;;14.35;81.14;101314.06;5032545;28;20046;-64
2022/05/31 07:39:19;;;;;;;9.38;6.35;;;;;;;14.31;78.84;101312.50;5007661;28;20045;-67
2022/05/31 07:41:46;;;;;;;12.68;6.32;;;;;;;14.40;79.61;101314.66;5022947;28;20030;-65
2022/05/31 07:44:13;;;;;;;9.65;5.97;;;;;;;14.36;79.05;101307.78;4995696;28;20493;-66
2022/05/31 07:46:39;;;;;;;9.57;5.53;;;;;;;14.39;77.49;101304.09;5014372;28;20032;-66
2022/05/31 07:49:05;;;;;;;9.00;5.85;;;;;;;14.47;76.58;101306.34;5018195;28;20025;-66
2022/05/31 07:51:31;;;;;;;9.75;5.72;;;;;;;14.55;75.88;101306.78;5014597;28;20041;-65
2022/05/31 07:53:56;;;;;;;15.15;6.25;;;;;;;14.63;77.04;101304.56;5032394;28;20031;-65
2022/05/31 07:56:22;;;;;;;9.40;5.75;;;;;;;14.74;74.97;101299.56;5032771;28;20025;-65
2022/05/31 07:58:48;;;;;;;10.32;5.07;;;;;;;14.78;73.78;101296.72;5032763;28;20017;-65
2022/05/31 08:01:19;;;;;;;9.82;4.80;;;;;;;14.87;73.26;101305.06;5032566;28;20120;-64
2022/05/31 08:03:45;;;;;;;9.85;5.90;;;;;;;14.96;74.32;101301.03;5015096;28;20544;-64
2022/05/31 08:06:16;;;;;;;9.02;6.15;;;;;;;15.06;73.81;101301.34;5032080;28;20136;-65
2022/05/31 08:08:42;;;;;;;11.43;6.13;;;;;;;15.10;73.44;101302.03;5014736;28;20036;-65
2022/05/31 08:11:23;;;;;;;11.25;5.47;;;;;;;15.21;73.65;101292.47;5032412;28;20025;-65
2022/05/31 08:13:49;;;;;;;10.05;5.43;;;;;;;15.32;74.14;101291.00;5028095;28;20032;-63
2022/05/31 08:16:17;;;;;;;7.72;5.03;;;;;;;15.44;72.07;101292.13;5012145;28;20026;-65
2022/05/31 08:18:43;;;;;;;9.07;4.57;;;;;;;15.45;68.90;101286.69;5030177;28;20023;-65
2022/05/31 08:21:11;;;;;;;9.35;4.95;;;;;;;15.54;69.48;101296.81;5031876;28;20044;-65
2022/05/31 08:23:38;;;;;;;6.53;4.55;;;;;;;15.66;67.72;101279.19;5031788;28;20021;-65
2022/05/31 08:26:04;;;;;;;8.80;3.88;;;;;;;15.76;65.16;101289.38;5013980;28;20022;-65
2022/05/31 08:28:31;;;;;;;9.38;4.07;;;;;;;15.82;62.88;101287.22;5031428;28;20076;-64
2022/05/31 08:30:59;;;;;;;8.40;4.10;;;;;;;15.87;60.26;101289.63;5032286;28;20556;-65
2022/05/31 08:33:25;;;;;;;7.10;3.30;;;;;;;16.01;57.69;101284.28;5032130;28;20120;-65
2022/05/31 08:35:51;;;;;;;6.40;3.67;;;;;;;16.25;56.57;101289.06;5030236;28;20393;-64
2022/05/31 08:38:17;;;;;;;12.75;4.22;;;;;;;16.97;56.02;101280.16;5031951;28;20045;-65
2022/05/31 08:40:50;;;;;;;7.60;4.00;;;;;;;18.62;50.04;101292.22;5029864;28;20031;-65
2022/05/31 08:43:22;;;;;;;7.63;4.22;;;;;;;20.26;45.55;101288.97;5013666;28;20037;-65
2022/05/31 08:45:53;;;;;;;7.20;4.25;;;;;;;21.54;40.89;101284.97;5025722;28;20111;-66
2022/05/31 08:48:31;;;;;;;7.55;3.53;;;;;;;22.59;37.41;101287.59;5031592;28;20025;-66
2022/05/31 08:56:59;;;;;;;5.22;3.03;;;;;;;23.46;33.46;101287.94;5028883;28;20452;-66
2022/05/31 08:59:41;;;;;;;6.35;3.10;;;;;;;23.04;32.16;101278.22;5034975;28;20037;-64
2022/05/31 09:02:19;;;;;;;7.25;2.70;;;;;;;22.96;33.68;101275.34;5019661;28;20029;-65
2022/05/31 09:04:59;;;;;;;5.65;2.70;;;;;;;23.92;30.55;101279.25;5020167;28;20121;-65
2022/05/31 09:07:31;;;;;;;4.30;2.80;;;;;;;24.29;30.45;101287.38;5031186;28;20523;-65
2022/05/31 09:10:04;;;;;;;6.20;3.13;;;;;;;24.26;28.87;101274.16;5014015;28;20446;-66
2022/05/31 09:12:43;;;;;;;5.68;2.85;;;;;;;23.75;29.89;101268.16;5030670;28;20033;-64
2022/05/31 09:15:23;;;;;;;6.28;3.05;;;;;;;24.66;30.12;101269.47;5031233;28;20134;-65
2022/05/31 09:18:38;;;;;;;6.35;3.78;;;;;;;24.72;30.74;101271.56;5030850;28;20384;-65
2022/05/31 09:21:04;;;;;;;6.93;3.35;;;;;;;24.03;30.95;101268.25;4994216;28;20495;-65
2022/05/31 09:23:38;;;;;;;7.18;3.08;;;;;;;24.32;32.67;101267.28;5031464;28;20036;-64
2022/05/31 09:26:09;;;;;;;6.55;3.55;;;;;;;23.96;31.74;101269.84;5024271;28;20042;-65
2022/05/31 09:28:48;;;;;;;6.15;3.00;;;;;;;22.86;33.30;101263.69;5026935;28;20025;-65
2022/05/31 09:31:43;;;;;;;7.78;3.30;;;;;;;22.82;34.37;101262.25;5013285;28;20489;-65
2022/05/31 09:34:32;;;;;;;6.40;3.30;;;;;;;23.33;33.64;101261.19;5028075;28;20468;-65
2022/05/31 09:37:04;;;;;;;9.27;3.33;;;;;;;23.64;34.64;101254.78;5011017;28;20058;-65
2022/05/31 09:39:43;;;;;;;4.85;3.10;;;;;;;23.31;34.66;101265.91;5012532;28;20061;-65
2022/05/31 09:42:43;;;;;;;6.18;3.60;;;;;;;22.65;35.81;101266.44;5019304;28;20025;-64
2022/05/31 09:45:12;;;;;;;7.22;3.30;;;;;;;22.24;38.00;101261.03;5035351;28;20033;-64
2022/05/31 09:47:38;;;;;;;7.97;3.72;;;;;;;21.91;36.96;101255.75;5035275;28;20021;-65
2022/05/31 09:50:04;;;;;;;8.18;3.55;;;;;;;21.62;38.07;101252.00;5034814;28;20112;-65
2022/05/31 09:52:47;;;;;;;8.77;3.58;;;;;;;21.50;35.97;101254.72;5034610;28;20630;-65
2022/05/31 09:58:07;;;;;;;6.63;3.15;;;;;;;21.37;38.19;101254.91;5034737;28;20036;-65
2022/05/31 10:00:32;;;;;;;6.72;3.40;;;;;;;21.20;38.17;101245.56;5034843;28;20028;-65
2022/05/31 10:03:10;;;;;;;8.70;3.95;;;;;;;21.32;38.62;101245.50;5016729;28;20029;-66
2022/05/31 10:05:37;;;;;;;6.38;3.40;;;;;;;21.90;36.14;101247.78;5026292;28;20452;-65
2022/05/31 10:08:03;;;;;;;6.15;3.60;;;;;;;21.59;35.56;101236.97;5035874;28;20029;-65
2022/05/31 10:10:33;;;;;;;6.57;3.58;;;;;;;21.65;37.67;101241.81;5017247;28;20025;-65
2022/05/31 10:13:05;;;;;;;7.47;3.35;;;;;;;21.23;36.67;101244.44;5034239;28;20044;-65
2022/05/31 10:15:44;;;;;;;8.15;3.90;;;;;;;20.68;36.16;101249.81;5034182;28;20065;-65
2022/05/31 10:18:13;;;;;;;6.55;3.75;;;;;;;20.35;37.51;101247.03;5034977;28;20481;-66
2022/05/31 10:20:52;;;;;;;11.65;3.58;;;;;;;20.09;38.07;101239.22;5040623;28;20025;-64
2022/05/31 10:23:21;;;;;;;8.25;3.53;;;;;;;19.78;38.48;101248.78;5030589;28;20063;-64
2022/05/31 10:25:53;;;;;;;7.38;3.30;;;;;;;19.75;41.42;101241.81;5029488;28;20029;-65
2022/05/31 10:28:31;;;;;;;7.18;3.40;;;;;;;19.49;40.55;101242.00;5028861;28;20033;-65
2022/05/31 10:31:13;;;;;;;4.82;2.95;;;;;;;19.42;40.12;101240.72;5024232;28;20493;-65
2022/05/31 10:33:38;;;;;;;8.57;3.47;;;;;;;18.99;43.60;101246.66;5029154;28;20366;-64
2022/05/31 10:36:06;;;;;;;7.93;3.45;;;;;;;18.91;41.79;101241.00;5040855;28;20028;-64
2022/05/31 10:38:32;;;;;;;7.03;3.00;;;;;;;18.73;39.46;101241.34;5036838;28;20041;-64
2022/05/31 10:41:05;;;;;;;4.50;2.63;;;;;;;18.82;39.26;101245.19;5033574;28;20056;-65
2022/05/31 10:43:43;;;;;;;4.95;2.28;;;;;;;18.84;37.89;101243.25;5015525;28;20033;-65
2022/05/31 10:46:19;;;;;;;3.50;2.22;;;;;;;18.81;38.35;101240.78;5033102;28;20030;-65
2022/05/31 10:48:49;;;;;;;3.70;2.10;;;;;;;18.73;38.31;101245.84;5034021;28;20064;-64
2022/05/31 10:51:26;;;;;;;6.00;2.80;;;;;;;18.52;38.00;101249.13;5033102;28;20052;-64
2022/05/31 10:54:19;;;;;;;5.20;2.50;;;;;;;18.22;39.49;101246.81;5033966;28;20434;-65
2022/05/31 10:57:06;;;;;;;6.78;2.50;;;;;;;18.07;40.77;101248.75;5028954;28;20100;-64
2022/05/31 10:59:41;;;;;;;4.40;2.15;;;;;;;17.91;39.56;101254.28;4984005;28;20025;-64
2022/05/31 11:02:42;;;;;;;5.18;2.15;;;;;;;17.76;40.70;101249.03;5016271;28;20381;-65
2022/05/31 11:05:11;;;;;;;7.85;2.75;;;;;;;17.51;40.72;101253.38;4952710;28;20106;-65
2022/05/31 11:11:28;;;;;;;6.72;2.60;;;;;;;17.42;41.90;101247.81;5011146;28;20199;-65
2022/05/31 11:13:49;;;;;;;12.98;2.65;;;;;;;17.62;43.33;101262.50;5030617;28;20033;-65
2022/05/31 11:16:37;;;;;;;5.30;2.55;;;;;;;17.62;41.83;101265.16;5012119;28;20113;-65
2022/05/31 11:19:08;;;;;;;7.22;2.80;;;;;;;17.55;42.58;101256.69;5014823;28;20057;-65
2022/05/31 11:21:42;;;;;;;4.95;2.60;;;;;;;17.91;43.80;101259.66;5033494;28;20030;-65
2022/05/31 11:24:24;;;;;;;7.85;3.00;;;;;;;18.44;42.48;101263.09;5015395;28;20029;-65
2022/05/31 11:27:04;;;;;;;8.35;2.50;;;;;;;18.51;41.47;101258.13;5015173;28;20029;-65
2022/05/31 11:30:17;;;;;;;12.68;3.85;;;;;;;19.16;39.07;101256.97;5031800;28;20083;-65
2022/05/31 11:32:45;;;;;;;5.30;2.53;;;;;;;20.01;38.12;101259.59;4952785;28;20098;-65
2022/05/31 11:35:37;;;;;;;4.90;2.20;;;;;;;20.12;36.00;101252.41;4952836;28;20038;-65
2022/05/31 11:38:04;;;;;;;;;;;;;;;19.98;36.38;101258.84;5009539;28;20053;-65
2022/05/31 11:40:52;;;;;;;5.63;2.85;;;;;;;19.60;38.00;101251.94;5033167;28;19909;-65
2022/05/31 11:43:34;;;;;;;7.68;2.92;;;;;;;19.42;39.71;101256.00;5032562;28;20477;-65
2022/05/31 11:46:11;;;;;;;6.57;2.40;;;;;;;19.28;41.96;101257.03;5030584;28;20041;-65
2022/05/31 11:48:49;;;;;;;4.22;2.70;;;;;;;19.34;40.43;101263.78;5010706;28;20324;-65
2022/05/31 11:51:23;;;;;;;7.18;3.30;;;;;;;19.30;42.89;101255.94;5024269;28;20057;-65
2022/05/31 11:54:19;;;;;;;5.35;2.90;;;;;;;19.40;41.25;101260.63;5021021;28;20135;-65
2022/05/31 11:56:47;;;;;;;5.30;3.20;;;;;;;19.79;40.17;101255.88;5016111;28;20107;-65
2022/05/31 11:59:24;;;;;;;5.30;2.72;;;;;;;19.92;38.38;101264.75;5034872;28;20511;-65